Aktualne dane pomiarowe

Uwaga, wersja testowa! Automatyczne pobieranie danych za pomocą narzędzi lub skryptów to umożliwiających jest zabronione.

Dane meteo z obszaru Polski uzyskane na podstawie depesz SYNOP pobieranych co godzinę z NWS. Najedź myszką na symbol przedstawiony w tabeli, aby uzyskać informacje co do jego znaczenia. Prosimy pamiętać, że to testowa wersja strony, która jeszcze nie jest ukończona. Stworzono również jest krótki FAQ dotyczący korzystania z tej podstrony Anomalie temperatury w chwili obecnej odniesione są do okresu referencyjnego 1951-2016. Okres ten będzie później zmieniony na 1981-2010. Kliknij ikonę aby pobrać plik CSV. Kliknij ikonę aby wygenerować mapę synoptyczną dla danego terminu.

Wybierz Datę:    

        

Inowrocław (12342)

Dane terminowe dla wybranej stacji. Kliknij datę, aby otrzymać dane z tego terminu dla wszystkich stacji.

TemperaturaZachmurzenieWiatrCiśnienieOpadyPogoda
 Data t td wb tx tn tg rh  Nt Nl Cl Cm Ch ws wd g1 g2 wx mslp ppp ch 24h 12h t ww ww w1 w2  
2019-07-07 23:00:00 13.2 9.5 10.8--- 7810.0wxwxwxwx7wx---1009.3 999.3 0.4---------
2019-07-07 22:00:00 13.3 10.1 11.2--- 8110.0wxwxwxwx6wx---1009.2 999.2 0.9---------
2019-07-07 21:00:00 13.6 9.7 11.1--- 7710.0wxwxwxwx5wx---1009.0 999.0 1.3---------
2019-07-07 20:00:00 14.0 9.0 10.9--- 7210.0wxwxwx5wx---1008.9 998.9 1.6---------
2019-07-07 19:00:00 14.4 9.4 11.3--- 7210.0wxwxwx4wx---1008.4 998.4 1.3---------
2019-07-07 18:00:00 16.3 8.3 11.6--- 5910.0wxwxwx11wx---1007.6 997.7 0.8---------
2019-07-07 17:00:00 16.7 8.4 11.8--- 5810.0wxwxwxwx5wx---1007.2 997.3 0.5---------
2019-07-07 16:00:00 18.1 7.5 12.1--- 5010.0wxwxwxwx9wx---1006.9 997.1 0.4---------
2019-07-07 15:00:00 18.5 7.3 12.2--- 4810.0wxwxwxwx9wx---1006.7 996.9 0.3---------
2019-07-07 14:00:00 18.3 7.1 12.0--- 4810.0wxwxwxwx9wx---1006.6 996.8 0.5---------
2019-07-07 13:00:00 18.2 6.4 11.6--- 4610.0wxwxwx11wx---1006.6 996.7 1.0---------
2019-07-07 12:00:00 18.3 6.8 11.9--- 4710.0wxwxwx11wx---1006.3 996.5 1.0---------
2019-07-07 11:00:00 17.7 6.9 11.6--- 4910.0wxwxwx11wx---1006.1 996.3 1.1---------
2019-07-07 10:00:00 17.2 6.4 11.2--- 4910.0wxwxwx10wx---1005.5 995.7 0.6---------
2019-07-07 09:00:00 17.5 6.7 11.4--- 4910.0wxwxwx9wx---1005.4 995.5 0.5---------
2019-07-07 08:00:00 16.8 6.9 11.2--- 5210.0wxwxwx10wx---1005.4 995.5 0.2---------
2019-07-07 07:00:00 15.9 7.4 11.0--- 5710.0wxwxwx9wx---1005.0 995.1 0.0---------
2019-07-07 06:00:00 14.7 8.2 10.8--- 6510.0wxwxwx9wx---1004.9 995.0 0.3---------
2019-07-07 05:00:00 13.8 8.0 10.3--- 6810.0wxwxwxwx6wx---1005.3 995.3 0.5---------
2019-07-07 04:00:00 13.6 8.9 10.7--- 7310.0wxwxwx5wx---1005.3 995.3 0.6---------
2019-07-07 03:00:00 14.5 13.1 13.5--- 9110.0wxwxwx5wx---1004.9 994.9 -0.1---------
2019-07-07 02:00:00 15.1 14.0 14.3--- 9310.0wxwxwx5wx---1004.8 994.8 -0.4---------
2019-07-07 01:00:00 15.6 14.8 15.0--- 9510.0wxwxwx5wx---1004.7 994.7 -0.7---wx---
2019-07-07 00:00:00 15.7 14.8 15.0--- 9410.0wxwxwx5wx---1004.9 994.9 -0.6---wx---
2019-07-06 23:00:00 15.8 14.8 15.1--- 9410.0wxwxwx5wx---1005.1 995.1 -0.8---wx---
2019-07-06 22:00:00 16.0 14.7 15.1--- 9210.0wxwxwx3wx---1005.4 995.4 -0.8---wx---
2019-07-06 21:00:00 16.1 14.5 15.0--- 9010.0wx-wx4wx---1005.5 995.5 -0.5---wx---
2019-07-06 20:00:00 16.8 15.3 15.7--- 9110.0wxwxwx3wx---1005.8 995.8 -0.6---wx---
2019-07-06 19:00:00 17.2 14.1 15.1--- 8210.0wxwxwx3wx---1006.1 996.1 -0.4---wx---
2019-07-06 18:00:00 17.8 13.5 14.9--- 7610.0wxwxwx3wx---1006.1 996.1 -0.7---wx---
2019-07-06 17:00:00 18.1 13.6 15.1--- 7510.0wxwxwx1----1006.4 996.4 -1.1---wx---
2019-07-06 16:00:00 18.6 13.3 15.1--- 7110.0wxwxwx1----1006.5 996.5 -1.7---wx---
2019-07-06 15:00:00 19.2 11.8 14.6--- 6210.0wxwxwx3wx---1006.8 996.8 -1.6---wx---
2019-07-06 14:00:00 18.8 11.4 14.2--- 6210.0wxwxwxwx3wx---1007.5 997.5 -1.0---wx---
2019-07-06 13:00:00 17.8 11.6 13.9--- 6710.0wxwxwxwx5wx---1008.2 998.2 -0.5---wx---
2019-07-06 12:00:00 18.7 10.5 13.7--- 5910.0wxwxwx6wx---1008.4 998.4 -0.9---------
2019-07-06 11:00:00 18.6 10.5 13.7--- 5910.0wxwxwx8wx---1008.5 998.5 -1.0---------
2019-07-06 10:00:00 18.6 11.0 13.9--- 6110.0wxwxwx7wx---1008.7 998.7 -1.1---------
2019-07-06 09:00:00 17.2 10.6 13.1--- 6510.0wxwxwx6wx---1009.3 999.3 -0.8---------
2019-07-06 08:00:00 17.8 11.2 13.7--- 6510.0wxwxwx6wx---1009.5 999.5 -0.7---------
2019-07-06 07:00:00 16.5 11.5 13.3--- 7210.0wxwxwx5wx---1009.7 999.8 -0.7---------
2019-07-06 06:00:00 15.7 12.1 13.3--- 7910.0wxwxwx5wx---1010.01000.1 -0.6---------
2019-07-06 05:00:00 14.4 13.0 13.4--- 9110.0wxwxwx3wx---1009.9 999.9 -0.8---------
2019-07-06 04:00:00 13.0 12.7 12.7--- 989.0wxwxwx3wx---1010.41000.4 -0.6---wx-w1w2--
2019-07-06 03:00:00 12.1 11.8 11.8--- 989.0wxwxwx5wx---1010.71000.6 -0.7---wx-w1--
2019-07-06 02:00:00 12.0 11.4 11.5--- 969.0wxwxwx3wx---1010.91000.8 -0.6---wx---
2019-07-06 01:00:00 12.7 11.3 11.7--- 9110.0wxwxwx3wx---1011.11001.0 0.2---------
2019-07-06 00:00:00 14.0 11.9 12.6--- 8710.0wx-wx3wx---1011.31001.3 0.1---------
1.0 ms

 

Print Friendly, PDF & Email